createdAt,value
2023-04-23T00:00:00.350Z,981.19
2023-04-23T00:01:00.307Z,981.20
2023-04-23T00:02:00.290Z,981.16
2023-04-23T00:03:00.445Z,981.13
2023-04-23T00:04:00.387Z,981.13
2023-04-23T00:05:00.535Z,981.14
2023-04-23T00:06:00.249Z,981.14
2023-04-23T00:07:00.255Z,981.16
2023-04-23T00:08:00.221Z,981.11
2023-04-23T00:09:00.212Z,981.17
2023-04-23T00:10:00.243Z,981.13
2023-04-23T00:11:00.201Z,981.12
2023-04-23T00:12:00.228Z,981.12
2023-04-23T00:13:00.177Z,981.13
2023-04-23T00:14:00.176Z,981.15
2023-04-23T00:15:00.184Z,981.10
2023-04-23T00:16:00.410Z,981.13
2023-04-23T00:17:00.165Z,981.16
2023-04-23T00:18:00.197Z,981.13
2023-04-23T00:19:00.119Z,981.06
2023-04-23T00:20:00.124Z,981.08
2023-04-23T00:21:00.124Z,981.08
2023-04-23T00:22:00.105Z,981.07
2023-04-23T00:23:00.084Z,981.08
2023-04-23T00:24:00.075Z,981.04
2023-04-23T00:25:00.062Z,981.06
2023-04-23T00:26:00.100Z,981.05
2023-04-23T00:27:00.022Z,981.03
2023-04-23T00:28:00.061Z,980.99
2023-04-23T00:29:00.029Z,981.03
2023-04-23T00:30:00.006Z,980.98
2023-04-23T00:31:00.003Z,980.96
2023-04-23T00:32:00.009Z,980.98
2023-04-23T00:32:59.998Z,980.96
2023-04-23T00:33:59.986Z,980.98
2023-04-23T00:34:59.958Z,980.98
2023-04-23T00:35:59.937Z,980.93
2023-04-23T00:36:59.927Z,980.94
2023-04-23T00:37:59.921Z,980.97
2023-04-23T00:38:59.971Z,980.94
2023-04-23T00:39:59.899Z,981.01
2023-04-23T00:40:59.909Z,980.96
2023-04-23T00:41:59.905Z,980.97
2023-04-23T00:42:59.873Z,980.90
2023-04-23T00:43:59.903Z,980.94
2023-04-23T00:44:59.855Z,980.94
2023-04-23T00:45:59.859Z,980.93
2023-04-23T00:46:59.831Z,980.95
2023-04-23T00:48:00.049Z,980.95
2023-04-23T00:48:59.810Z,980.94
2023-04-23T00:49:59.785Z,980.92
2023-04-23T00:50:59.789Z,980.95
2023-04-23T00:51:59.775Z,980.92
2023-04-23T00:52:59.790Z,980.94
2023-04-23T00:53:59.749Z,980.90
2023-04-23T00:54:59.742Z,980.90
2023-04-23T00:55:59.737Z,980.93
2023-04-23T00:56:59.765Z,980.92
2023-04-23T00:57:59.727Z,980.94
2023-04-23T00:58:59.695Z,980.87
2023-04-23T00:59:59.685Z,980.87
2023-04-23T01:00:59.732Z,980.86
2023-04-23T01:01:59.659Z,980.77
2023-04-23T01:02:59.828Z,980.83
2023-04-23T01:03:59.816Z,980.82
2023-04-23T01:04:59.657Z,980.85
2023-04-23T01:05:59.625Z,980.86
2023-04-23T01:06:59.616Z,980.84
2023-04-23T01:07:59.609Z,980.81
2023-04-23T01:08:59.645Z,980.82
2023-04-23T01:09:59.573Z,980.84
2023-04-23T01:10:59.583Z,980.83
2023-04-23T01:11:59.561Z,980.79
2023-04-23T01:12:59.603Z,980.86
2023-04-23T01:13:59.564Z,980.81
2023-04-23T01:14:59.543Z,980.81
2023-04-23T01:15:59.525Z,980.80
2023-04-23T01:16:59.533Z,980.80
2023-04-23T01:17:59.560Z,980.82
2023-04-23T01:18:59.513Z,980.79
2023-04-23T01:19:59.488Z,980.82
2023-04-23T01:20:59.507Z,980.81
2023-04-23T01:21:59.502Z,980.84
2023-04-23T01:22:59.498Z,980.84
2023-04-23T01:23:59.492Z,980.83
2023-04-23T01:24:59.438Z,980.86
2023-04-23T01:25:59.492Z,980.80
2023-04-23T01:26:59.432Z,980.81
2023-04-23T01:27:59.457Z,980.77
2023-04-23T01:28:59.457Z,980.81
2023-04-23T01:29:59.379Z,980.84
2023-04-23T01:30:59.414Z,980.80
2023-04-23T01:31:59.355Z,980.76
2023-04-23T01:32:59.425Z,980.82
2023-04-23T01:33:59.363Z,980.84
2023-04-23T01:34:59.349Z,980.81
2023-04-23T01:35:59.308Z,980.79
2023-04-23T01:36:59.420Z,980.83
2023-04-23T01:37:59.292Z,980.81
2023-04-23T01:38:59.275Z,980.86
2023-04-23T01:39:59.295Z,980.79
2023-04-23T01:40:59.271Z,980.80
2023-04-23T01:41:59.261Z,980.76
2023-04-23T01:42:59.250Z,980.84
2023-04-23T01:43:59.258Z,980.87
2023-04-23T01:44:59.223Z,980.80
2023-04-23T01:45:59.266Z,980.88
2023-04-23T01:46:59.200Z,980.93
2023-04-23T01:47:59.242Z,980.93
2023-04-23T01:48:59.179Z,980.90
2023-04-23T01:49:59.183Z,980.84
2023-04-23T01:50:59.180Z,980.90
2023-04-23T01:51:59.158Z,980.83
2023-04-23T01:52:59.135Z,980.93
2023-04-23T01:53:59.178Z,980.92
2023-04-23T01:54:59.146Z,980.94
2023-04-23T01:55:59.166Z,980.91
2023-04-23T01:56:59.125Z,980.88
2023-04-23T01:57:59.105Z,980.92
2023-04-23T01:58:59.107Z,980.96
2023-04-23T01:59:59.067Z,980.91
2023-04-23T02:00:59.101Z,980.90
2023-04-23T02:01:59.110Z,980.90
2023-04-23T02:02:59.098Z,980.93
2023-04-23T02:03:59.217Z,980.90
2023-04-23T02:04:59.052Z,980.90
2023-04-23T02:05:59.006Z,980.95
2023-04-23T02:06:59.037Z,980.92
2023-04-23T02:07:59.001Z,980.92
2023-04-23T02:08:59.026Z,980.90
2023-04-23T02:09:58.983Z,980.96
2023-04-23T02:10:59.043Z,980.90
2023-04-23T02:11:58.980Z,980.94
2023-04-23T02:12:58.960Z,980.97
2023-04-23T02:13:58.936Z,980.93
2023-04-23T02:14:58.930Z,980.94
2023-04-23T02:15:58.950Z,980.93
2023-04-23T02:16:58.925Z,980.90
2023-04-23T02:17:58.944Z,980.95
2023-04-23T02:18:58.890Z,980.88
2023-04-23T02:19:58.883Z,980.88
2023-04-23T02:20:58.894Z,980.91
2023-04-23T02:21:58.869Z,980.87
2023-04-23T02:22:58.863Z,980.89
2023-04-23T02:23:58.843Z,980.88
2023-04-23T02:24:58.851Z,980.88
2023-04-23T02:25:58.813Z,980.93
2023-04-23T02:26:58.818Z,980.89
2023-04-23T02:27:58.796Z,980.86
2023-04-23T02:28:58.797Z,980.92
2023-04-23T02:29:58.800Z,980.91
2023-04-23T02:30:58.805Z,980.89
2023-04-23T02:31:58.793Z,980.93
2023-04-23T02:32:58.817Z,980.91
2023-04-23T02:33:58.758Z,980.92
2023-04-23T02:34:58.737Z,980.90
2023-04-23T02:35:58.716Z,980.89
2023-04-23T02:36:58.745Z,980.90
2023-04-23T02:37:58.729Z,980.84
2023-04-23T02:38:58.692Z,980.89
2023-04-23T02:39:58.676Z,980.91
2023-04-23T02:40:58.673Z,980.92
2023-04-23T02:41:58.657Z,980.97
2023-04-23T02:42:58.694Z,980.95
2023-04-23T02:43:58.663Z,980.97
2023-04-23T02:44:58.633Z,980.90
2023-04-23T02:45:58.624Z,980.93
2023-04-23T02:46:58.714Z,980.90
2023-04-23T02:47:58.650Z,980.91
2023-04-23T02:48:58.611Z,980.94
2023-04-23T02:49:58.580Z,980.96
2023-04-23T02:50:58.613Z,980.89
2023-04-23T02:51:58.557Z,980.90
2023-04-23T02:52:58.559Z,980.93
2023-04-23T02:53:58.560Z,980.97
2023-04-23T02:54:58.554Z,980.90
2023-04-23T02:55:58.527Z,980.88
2023-04-23T02:56:58.512Z,980.85
2023-04-23T02:57:58.503Z,980.90
2023-04-23T02:59:30.424Z,980.92
2023-04-23T02:59:58.500Z,980.88
2023-04-23T03:00:58.516Z,980.89
2023-04-23T03:01:58.539Z,980.94
2023-04-23T03:02:59.572Z,980.87
2023-04-23T03:03:58.540Z,980.91
2023-04-23T03:04:58.435Z,980.83
2023-04-23T03:05:59.479Z,980.93
2023-04-23T03:06:58.412Z,980.91
2023-04-23T03:07:58.428Z,980.89
2023-04-23T03:08:58.393Z,980.91
2023-04-23T03:09:58.410Z,980.93
2023-04-23T03:10:58.377Z,980.87
2023-04-23T03:11:58.363Z,980.92
2023-04-23T03:12:58.345Z,980.87
2023-04-23T03:13:58.375Z,980.96
2023-04-23T03:14:58.356Z,980.92
2023-04-23T03:15:58.335Z,980.89
2023-04-23T03:16:58.395Z,980.92
2023-04-23T03:17:58.355Z,980.95
2023-04-23T03:18:58.302Z,980.99
2023-04-23T03:19:58.297Z,980.96
2023-04-23T03:20:58.302Z,980.94
2023-04-23T03:21:58.273Z,980.97
2023-04-23T03:22:58.267Z,980.98
2023-04-23T03:23:58.268Z,980.97
2023-04-23T03:24:58.231Z,981.06
2023-04-23T03:25:58.217Z,981.02
2023-04-23T03:26:58.202Z,981.02
2023-04-23T03:27:58.229Z,980.99
2023-04-23T03:28:58.229Z,981.03
2023-04-23T03:29:58.182Z,981.00
2023-04-23T03:30:58.269Z,981.00
2023-04-23T03:31:58.206Z,981.03
2023-04-23T03:32:58.166Z,981.08
2023-04-23T03:33:58.209Z,981.11
2023-04-23T03:34:58.149Z,981.08
2023-04-23T03:35:58.134Z,981.09
2023-04-23T03:36:58.128Z,981.08
2023-04-23T03:37:58.111Z,981.11
2023-04-23T03:38:59.091Z,981.12
2023-04-23T03:39:58.161Z,981.14
2023-04-23T03:40:58.104Z,981.20
2023-04-23T03:41:58.072Z,981.19
2023-04-23T03:42:58.064Z,981.24
2023-04-23T03:43:58.039Z,981.30
2023-04-23T03:44:58.047Z,981.30
2023-04-23T03:45:58.090Z,981.28
2023-04-23T03:46:58.032Z,981.30
2023-04-23T03:47:58.029Z,981.35
2023-04-23T03:48:57.994Z,981.42
2023-04-23T03:49:57.986Z,981.36
2023-04-23T03:50:58.037Z,981.36
2023-04-23T03:51:57.957Z,981.42
2023-04-23T03:52:58.014Z,981.42
2023-04-23T03:53:57.940Z,981.39
2023-04-23T03:54:57.935Z,981.36
2023-04-23T03:55:57.974Z,981.36
2023-04-23T03:56:57.910Z,981.42
2023-04-23T03:57:57.900Z,981.45
2023-04-23T03:58:57.890Z,981.47
2023-04-23T03:59:57.921Z,981.43
2023-04-23T04:00:57.918Z,981.44
2023-04-23T04:01:57.852Z,981.46
2023-04-23T04:02:57.920Z,981.49
2023-04-23T04:03:58.082Z,981.51
2023-04-23T04:04:58.156Z,981.52
2023-04-23T04:05:57.859Z,981.51
2023-04-23T04:06:57.838Z,981.56
2023-04-23T04:07:57.848Z,981.50
2023-04-23T04:08:57.788Z,981.55
2023-04-23T04:09:57.827Z,981.54
2023-04-23T04:10:57.777Z,981.58
2023-04-23T04:11:57.764Z,981.58
2023-04-23T04:12:57.776Z,981.60
2023-04-23T04:13:57.749Z,981.57
2023-04-23T04:14:57.728Z,981.62
2023-04-23T04:15:57.840Z,981.60
2023-04-23T04:16:57.709Z,981.63
2023-04-23T04:17:57.730Z,981.68
2023-04-23T04:18:57.731Z,981.61
2023-04-23T04:19:57.696Z,981.64
2023-04-23T04:20:57.707Z,981.66
2023-04-23T04:21:57.693Z,981.71
2023-04-23T04:22:57.660Z,981.68
2023-04-23T04:23:57.648Z,981.65
2023-04-23T04:24:57.679Z,981.66
2023-04-23T04:25:57.674Z,981.62
2023-04-23T04:26:57.616Z,981.64
2023-04-23T04:27:57.609Z,981.62
2023-04-23T04:28:57.594Z,981.60
2023-04-23T04:29:57.624Z,981.65
2023-04-23T04:30:57.609Z,981.68
2023-04-23T04:31:57.569Z,981.63
2023-04-23T04:32:57.587Z,981.69
2023-04-23T04:33:57.552Z,981.67
2023-04-23T04:34:57.533Z,981.63
2023-04-23T04:35:57.593Z,981.77
2023-04-23T04:36:57.507Z,981.74
2023-04-23T04:37:57.523Z,981.72
2023-04-23T04:38:57.527Z,981.67
2023-04-23T04:39:57.511Z,981.69
2023-04-23T04:40:57.491Z,981.73
2023-04-23T04:41:57.477Z,981.75
2023-04-23T04:42:57.501Z,981.73
2023-04-23T04:43:57.452Z,981.75
2023-04-23T04:44:57.494Z,981.76
2023-04-23T04:45:57.441Z,981.74
2023-04-23T04:46:57.444Z,981.81
2023-04-23T04:47:58.536Z,981.77
2023-04-23T04:48:57.417Z,981.79
2023-04-23T04:49:57.437Z,981.78
2023-04-23T04:50:57.391Z,981.78
2023-04-23T04:51:57.373Z,981.84
2023-04-23T04:52:57.353Z,981.84
2023-04-23T04:53:57.376Z,981.77
2023-04-23T04:54:57.348Z,981.83
2023-04-23T04:55:57.334Z,981.78
2023-04-23T04:56:57.350Z,981.76
2023-04-23T04:57:57.330Z,981.79
2023-04-23T04:58:57.315Z,981.84
2023-04-23T04:59:57.315Z,981.84
2023-04-23T05:00:57.322Z,981.84
2023-04-23T05:01:57.305Z,981.82
2023-04-23T05:02:57.395Z,981.81
2023-04-23T05:03:57.431Z,981.82
2023-04-23T05:04:57.266Z,981.79
2023-04-23T05:05:57.246Z,981.83
2023-04-23T05:06:57.245Z,981.84
2023-04-23T05:07:57.222Z,981.85
2023-04-23T05:08:57.224Z,981.81
2023-04-23T05:09:57.236Z,981.79
2023-04-23T05:10:57.190Z,981.75
2023-04-23T05:11:57.190Z,981.81
2023-04-23T05:12:57.169Z,981.82
2023-04-23T05:13:57.147Z,981.86
2023-04-23T05:14:57.162Z,981.80
2023-04-23T05:15:58.162Z,981.85
2023-04-23T05:16:57.167Z,981.90
2023-04-23T05:17:57.197Z,981.82
2023-04-23T05:18:57.135Z,981.84
2023-04-23T05:19:57.091Z,981.84
2023-04-23T05:20:57.154Z,981.87
2023-04-23T05:21:57.119Z,981.86
2023-04-23T05:22:57.085Z,981.89
2023-04-23T05:23:57.082Z,981.91
2023-04-23T05:24:57.077Z,981.85
2023-04-23T05:25:57.039Z,981.81
2023-04-23T05:26:57.045Z,981.84
2023-04-23T05:27:57.066Z,981.87
2023-04-23T05:28:57.006Z,981.80
2023-04-23T05:29:56.997Z,981.82
2023-04-23T05:30:56.985Z,981.81
2023-04-23T05:31:57.053Z,981.79
2023-04-23T05:32:57.011Z,981.78
2023-04-23T05:33:56.972Z,981.81
2023-04-23T05:34:56.971Z,981.83
2023-04-23T05:35:56.946Z,981.86
2023-04-23T05:36:56.952Z,981.90
2023-04-23T05:37:56.919Z,981.90
2023-04-23T05:38:56.914Z,981.93
2023-04-23T05:39:56.888Z,981.93
2023-04-23T05:40:56.902Z,981.94
2023-04-23T05:41:56.861Z,981.96
2023-04-23T05:42:56.866Z,982.00
2023-04-23T05:43:56.872Z,981.96
2023-04-23T05:44:56.853Z,982.03
2023-04-23T05:45:56.849Z,982.05
2023-04-23T05:46:56.823Z,982.05
2023-04-23T05:47:56.846Z,982.07
2023-04-23T05:48:56.806Z,982.09
2023-04-23T05:49:56.824Z,982.03
2023-04-23T05:50:56.792Z,982.13
2023-04-23T05:51:56.800Z,982.04
2023-04-23T05:52:56.777Z,982.08
2023-04-23T05:53:56.776Z,982.15
2023-04-23T05:54:56.723Z,982.12
2023-04-23T05:55:56.794Z,982.08
2023-04-23T05:56:56.713Z,982.14
2023-04-23T05:57:56.906Z,982.11
2023-04-23T05:58:56.689Z,982.05
2023-04-23T05:59:56.701Z,982.11
2023-04-23T06:00:56.688Z,982.05
2023-04-23T06:01:56.697Z,982.06
2023-04-23T06:02:56.829Z,982.11
2023-04-23T06:03:56.761Z,982.07
2023-04-23T06:04:56.803Z,982.12
2023-04-23T06:05:56.661Z,982.12
2023-04-23T06:06:56.644Z,982.13
2023-04-23T06:07:56.611Z,982.15
2023-04-23T06:08:56.592Z,982.17
2023-04-23T06:09:56.596Z,982.16
2023-04-23T06:10:56.597Z,982.11
2023-04-23T06:11:56.555Z,982.21
2023-04-23T06:12:56.567Z,982.12
2023-04-23T06:13:56.546Z,982.19
2023-04-23T06:14:56.537Z,982.21
2023-04-23T06:15:56.534Z,982.26
2023-04-23T06:16:56.546Z,982.15
2023-04-23T06:17:56.527Z,982.12
2023-04-23T06:18:56.504Z,982.13
2023-04-23T06:19:56.480Z,982.09
2023-04-23T06:20:56.462Z,982.33
2023-04-23T06:21:56.475Z,982.16
2023-04-23T06:22:56.475Z,982.17
2023-04-23T06:23:56.432Z,982.17
2023-04-23T06:24:56.437Z,982.12
2023-04-23T06:25:56.436Z,981.95
2023-04-23T06:26:56.413Z,981.92
2023-04-23T06:27:56.396Z,982.16
2023-04-23T06:28:56.425Z,982.05
2023-04-23T06:29:56.397Z,982.02
2023-04-23T06:30:56.371Z,981.92
2023-04-23T06:31:56.359Z,982.08
2023-04-23T06:32:56.399Z,981.95
2023-04-23T06:33:56.360Z,982.06
2023-04-23T06:35:01.553Z,981.99
2023-04-23T06:35:58.330Z,981.96
2023-04-23T06:36:56.311Z,981.97
2023-04-23T06:37:56.315Z,981.90
2023-04-23T06:38:56.277Z,981.91
2023-04-23T06:39:56.308Z,981.90
2023-04-23T06:40:56.273Z,981.83
2023-04-23T06:41:56.259Z,981.82
2023-04-23T06:42:56.242Z,981.90
2023-04-23T06:43:56.235Z,981.85
2023-04-23T06:44:56.248Z,981.80
2023-04-23T06:45:56.260Z,981.73
2023-04-23T06:46:56.221Z,981.71
2023-04-23T06:47:56.332Z,981.49
2023-04-23T06:48:56.204Z,981.82
2023-04-23T06:49:56.261Z,981.78
2023-04-23T06:50:56.223Z,981.57
2023-04-23T06:51:57.793Z,981.79
2023-04-23T06:52:57.154Z,981.77
2023-04-23T06:53:56.180Z,981.69
2023-04-23T06:54:56.132Z,981.68
2023-04-23T06:55:56.139Z,981.66
2023-04-23T06:56:56.181Z,981.61
2023-04-23T06:57:56.113Z,981.50
2023-04-23T06:58:56.161Z,981.67
2023-04-23T06:59:56.106Z,981.53
2023-04-23T07:00:56.091Z,981.68
2023-04-23T07:01:56.166Z,981.64
2023-04-23T07:02:56.119Z,981.64
2023-04-23T07:03:56.081Z,981.62
2023-04-23T07:04:56.037Z,981.62
2023-04-23T07:05:56.040Z,981.59
2023-04-23T07:06:56.272Z,981.60
2023-04-23T07:07:56.022Z,981.63
2023-04-23T07:08:57.006Z,981.62
2023-04-23T07:09:56.012Z,981.49
2023-04-23T07:10:55.993Z,981.52
2023-04-23T07:11:56.284Z,981.49
2023-04-23T07:12:56.025Z,981.45
2023-04-23T07:13:55.978Z,981.66
2023-04-23T07:14:56.012Z,981.65
2023-04-23T07:15:55.952Z,981.65
2023-04-23T07:16:55.989Z,981.63
2023-04-23T07:17:55.958Z,981.42
2023-04-23T07:18:55.914Z,981.58
2023-04-23T07:19:55.907Z,981.61
2023-04-23T07:20:55.934Z,981.60
2023-04-23T07:21:55.896Z,981.59
2023-04-23T07:22:55.893Z,981.47
2023-04-23T07:23:55.909Z,981.56
2023-04-23T07:24:56.119Z,981.65
2023-04-23T07:25:55.868Z,981.63
2023-04-23T07:26:55.849Z,981.68
2023-04-23T07:27:55.854Z,981.64
2023-04-23T07:28:55.818Z,981.63
2023-04-23T07:29:55.856Z,981.67
2023-04-23T07:30:55.807Z,981.61
2023-04-23T07:31:55.876Z,981.51
2023-04-23T07:32:55.891Z,981.50
2023-04-23T07:33:55.791Z,981.59
2023-04-23T07:34:55.790Z,981.63
2023-04-23T07:35:55.843Z,981.56
2023-04-23T07:36:55.764Z,981.52
2023-04-23T07:37:55.959Z,981.62
2023-04-23T07:38:55.733Z,981.48
2023-04-23T07:39:55.729Z,981.44
2023-04-23T07:40:55.729Z,981.43
2023-04-23T07:41:55.720Z,981.51
2023-04-23T07:42:55.683Z,981.41
2023-04-23T07:43:55.686Z,981.40
2023-04-23T07:44:55.685Z,981.35
2023-04-23T07:45:55.720Z,981.45
2023-04-23T07:46:55.647Z,981.37
2023-04-23T07:47:55.673Z,981.41
2023-04-23T07:48:55.633Z,981.37
2023-04-23T07:49:55.616Z,981.28
2023-04-23T07:50:55.607Z,981.28
2023-04-23T07:51:55.616Z,981.36
2023-04-23T07:52:55.609Z,981.42
2023-04-23T07:53:55.591Z,981.42
2023-04-23T07:54:55.589Z,981.44
2023-04-23T07:55:55.588Z,981.43
2023-04-23T07:56:55.562Z,981.42
2023-04-23T07:57:55.540Z,981.41
2023-04-23T07:58:55.523Z,981.50
2023-04-23T07:59:55.557Z,981.43
2023-04-23T08:00:55.523Z,981.56
2023-04-23T08:01:55.505Z,981.56
2023-04-23T08:02:55.564Z,981.56
2023-04-23T08:03:58.400Z,981.52
2023-04-23T08:04:55.560Z,981.50
2023-04-23T08:05:55.467Z,981.54
2023-04-23T08:06:55.455Z,981.53
2023-04-23T08:07:55.444Z,981.38
2023-04-23T08:08:55.443Z,981.47
2023-04-23T08:09:55.435Z,981.58
2023-04-23T08:10:55.417Z,981.49
2023-04-23T08:11:55.458Z,981.50
2023-04-23T08:12:55.398Z,981.48
2023-04-23T08:13:55.400Z,981.56
2023-04-23T08:14:55.366Z,981.45
2023-04-23T08:15:55.385Z,981.55
2023-04-23T08:16:55.387Z,981.52
2023-04-23T08:17:55.458Z,981.45
2023-04-23T08:19:05.005Z,981.53
2023-04-23T08:19:56.326Z,981.42
2023-04-23T08:20:55.332Z,981.51
2023-04-23T08:21:55.316Z,981.51
2023-04-23T08:22:55.319Z,981.50
2023-04-23T08:23:55.280Z,981.55
2023-04-23T08:24:55.301Z,981.49
2023-04-23T08:25:55.338Z,981.34
2023-04-23T08:26:55.276Z,981.33
2023-04-23T08:27:55.261Z,981.29
2023-04-23T08:28:55.261Z,981.37
2023-04-23T08:29:55.245Z,981.21
2023-04-23T08:30:55.222Z,981.24
2023-04-23T08:31:55.239Z,981.26
2023-04-23T08:32:55.315Z,981.28
2023-04-23T08:33:55.224Z,981.30
2023-04-23T08:34:55.183Z,981.26
2023-04-23T08:35:55.162Z,981.21
2023-04-23T08:36:55.153Z,981.30
2023-04-23T08:37:55.148Z,981.19
2023-04-23T08:38:55.174Z,981.18
2023-04-23T08:39:56.137Z,981.14
2023-04-23T08:40:55.121Z,981.04
2023-04-23T08:41:55.138Z,981.05
2023-04-23T08:42:55.105Z,981.09
2023-04-23T08:43:55.091Z,981.13
2023-04-23T08:44:55.189Z,981.05
2023-04-23T08:45:56.084Z,981.04
2023-04-23T08:46:55.193Z,981.08
2023-04-23T08:47:55.072Z,981.07
2023-04-23T08:48:55.045Z,981.09
2023-04-23T08:49:55.028Z,981.13
2023-04-23T08:50:55.035Z,981.06
2023-04-23T08:51:55.022Z,981.13
2023-04-23T08:52:55.023Z,981.09
2023-04-23T08:53:55.008Z,981.12
2023-04-23T08:54:55.031Z,981.03
2023-04-23T08:55:54.962Z,980.97
2023-04-23T08:56:54.969Z,981.05
2023-04-23T08:57:54.984Z,980.91
2023-04-23T08:58:57.021Z,980.94
2023-04-23T08:59:55.920Z,980.97
2023-04-23T09:00:54.987Z,980.98
2023-04-23T09:01:54.921Z,980.94
2023-04-23T09:02:55.153Z,980.97
2023-04-23T09:03:55.090Z,981.01
2023-04-23T09:04:56.298Z,980.87
2023-04-23T09:05:55.890Z,981.11
2023-04-23T09:06:54.853Z,981.06
2023-04-23T09:07:54.858Z,981.01
2023-04-23T09:08:54.835Z,981.06
2023-04-23T09:09:54.840Z,981.11
2023-04-23T09:10:54.827Z,981.01
2023-04-23T09:11:55.124Z,981.07
2023-04-23T09:12:55.799Z,981.07
2023-04-23T09:13:54.789Z,981.12
2023-04-23T09:14:54.850Z,981.08
2023-04-23T09:15:54.766Z,981.19
2023-04-23T09:16:54.840Z,981.11
2023-04-23T09:17:54.785Z,981.12
2023-04-23T09:18:54.755Z,981.14
2023-04-23T09:19:54.741Z,981.19
2023-04-23T09:20:54.725Z,981.09
2023-04-23T09:21:54.704Z,981.15
2023-04-23T09:22:54.722Z,981.17
2023-04-23T09:23:54.716Z,981.07
2023-04-23T09:24:54.726Z,981.07
2023-04-23T09:25:54.682Z,981.03
2023-04-23T09:26:54.661Z,981.02
2023-04-23T09:27:54.738Z,981.03
2023-04-23T09:28:54.630Z,980.98
2023-04-23T09:29:54.686Z,980.97
2023-04-23T09:30:54.619Z,980.94
2023-04-23T09:31:54.674Z,981.03
2023-04-23T09:32:54.775Z,981.04
2023-04-23T09:33:54.629Z,981.05
2023-04-23T09:34:54.601Z,980.97
2023-04-23T09:35:54.585Z,980.89
2023-04-23T09:36:54.572Z,980.88
2023-04-23T09:37:54.587Z,980.87
2023-04-23T09:38:54.588Z,980.81
2023-04-23T09:39:54.546Z,980.87
2023-04-23T09:40:54.531Z,980.91
2023-04-23T09:41:54.570Z,980.89
2023-04-23T09:42:54.926Z,980.92
2023-04-23T09:43:54.504Z,980.88
2023-04-23T09:44:54.503Z,980.91
2023-04-23T09:45:54.585Z,980.84
2023-04-23T09:46:54.480Z,980.90
2023-04-23T09:47:54.605Z,980.81
2023-04-23T09:48:54.476Z,980.87
2023-04-23T09:49:54.469Z,980.92
2023-04-23T09:50:54.426Z,980.86
2023-04-23T09:51:54.423Z,980.81
2023-04-23T09:52:54.419Z,980.90
2023-04-23T09:53:54.488Z,980.88
2023-04-23T09:54:54.385Z,980.90
2023-04-23T09:55:54.388Z,980.84
2023-04-23T09:56:54.383Z,980.87
2023-04-23T09:57:54.402Z,980.88
2023-04-23T09:58:54.357Z,980.83
2023-04-23T10:00:03.712Z,980.84
2023-04-23T10:00:56.363Z,980.82
2023-04-23T10:01:54.308Z,980.84
2023-04-23T10:02:54.413Z,980.75
2023-04-23T10:03:54.436Z,980.82
2023-04-23T10:05:00.850Z,980.88
2023-04-23T10:06:01.638Z,980.78
2023-04-23T10:07:13.829Z,980.83
2023-04-23T10:07:55.265Z,980.78
2023-04-23T10:08:54.271Z,980.76
2023-04-23T10:09:54.269Z,980.86
2023-04-23T10:11:05.975Z,980.86
2023-04-23T10:11:56.216Z,980.83
2023-04-23T10:12:55.561Z,980.86
2023-04-23T10:13:55.222Z,980.79
2023-04-23T10:14:54.208Z,980.93
2023-04-23T10:15:54.233Z,980.93
2023-04-23T10:16:54.284Z,980.87
2023-04-23T10:17:54.229Z,980.81
2023-04-23T10:18:54.177Z,980.79
2023-04-23T10:19:54.160Z,980.80
2023-04-23T10:20:54.147Z,980.82
2023-04-23T10:21:57.994Z,980.84
2023-04-23T10:22:56.154Z,980.85
2023-04-23T10:23:54.172Z,980.77
2023-04-23T10:24:54.091Z,980.88
2023-04-23T10:25:54.163Z,980.78
2023-04-23T10:26:54.092Z,980.85
2023-04-23T10:27:54.788Z,980.83
2023-04-23T10:28:55.051Z,980.88
2023-04-23T10:29:54.058Z,980.84
2023-04-23T10:30:54.073Z,980.81
2023-04-23T10:31:54.024Z,980.87
2023-04-23T10:32:54.067Z,980.82
2023-04-23T10:33:58.615Z,980.89
2023-04-23T10:34:55.996Z,980.86
2023-04-23T10:35:53.977Z,980.72
2023-04-23T10:36:53.973Z,980.78
2023-04-23T10:37:53.958Z,980.80
2023-04-23T10:38:58.401Z,980.82
2023-04-23T10:39:55.942Z,980.75
2023-04-23T10:40:53.939Z,980.78
2023-04-23T10:41:53.921Z,980.72
2023-04-23T10:42:54.508Z,980.78
2023-04-23T10:43:53.930Z,980.77
2023-04-23T10:45:00.873Z,980.71
2023-04-23T10:45:55.902Z,980.68
2023-04-23T10:46:53.953Z,980.66
2023-04-23T10:47:53.889Z,980.65
2023-04-23T10:48:53.863Z,980.62
2023-04-23T10:49:53.873Z,980.68
2023-04-23T10:51:09.716Z,980.63
2023-04-23T10:52:54.865Z,980.54
2023-04-23T10:53:53.832Z,980.51
2023-04-23T10:54:53.797Z,980.48
2023-04-23T10:55:53.796Z,980.53
2023-04-23T10:56:53.783Z,980.47
2023-04-23T10:57:53.782Z,980.53
2023-04-23T10:58:53.766Z,980.41
2023-04-23T10:59:53.762Z,980.50
2023-04-23T11:00:53.742Z,980.50
2023-04-23T11:01:53.790Z,980.46
2023-04-23T11:02:53.824Z,980.47
2023-04-23T11:03:53.857Z,980.43
2023-04-23T11:04:54.833Z,980.47
2023-04-23T11:05:53.730Z,980.42
2023-04-23T11:06:53.674Z,980.44
2023-04-23T11:07:53.661Z,980.37
2023-04-23T11:08:53.762Z,980.34
2023-04-23T11:09:53.661Z,980.33
2023-04-23T11:10:53.631Z,980.35
2023-04-23T11:11:53.627Z,980.36
2023-04-23T11:12:53.609Z,980.31
2023-04-23T11:13:53.634Z,980.33
2023-04-23T11:14:53.582Z,980.27
2023-04-23T11:15:53.583Z,980.27
2023-04-23T11:16:53.602Z,980.27
2023-04-23T11:17:53.580Z,980.32
2023-04-23T11:18:53.552Z,980.29
2023-04-23T11:19:53.578Z,980.19
2023-04-23T11:20:53.527Z,980.24
2023-04-23T11:21:53.516Z,980.28
2023-04-23T11:22:53.551Z,980.24
2023-04-23T11:23:53.494Z,980.24
2023-04-23T11:24:53.512Z,980.16
2023-04-23T11:25:53.503Z,980.27
2023-04-23T11:26:53.498Z,980.22
2023-04-23T11:27:53.457Z,980.22
2023-04-23T11:28:53.426Z,980.24
2023-04-23T11:29:53.458Z,980.17
2023-04-23T11:30:53.445Z,980.26
2023-04-23T11:32:02.665Z,980.21
2023-04-23T11:32:55.492Z,980.19
2023-04-23T11:33:53.399Z,980.15
2023-04-23T11:34:53.462Z,980.21
2023-04-23T11:35:53.431Z,980.24
2023-04-23T11:36:53.370Z,980.18
2023-04-23T11:37:53.366Z,980.21
2023-04-23T11:38:53.357Z,980.18
2023-04-23T11:39:53.387Z,980.14
2023-04-23T11:40:53.397Z,980.22
2023-04-23T11:41:54.106Z,980.14
2023-04-23T11:42:53.311Z,980.11
2023-04-23T11:43:53.298Z,980.10
2023-04-23T11:44:53.292Z,980.06
2023-04-23T11:45:53.371Z,980.09
2023-04-23T11:46:53.313Z,980.06
2023-04-23T11:47:53.292Z,980.07
2023-04-23T11:48:53.272Z,980.05
2023-04-23T11:49:53.253Z,980.05
2023-04-23T11:50:53.232Z,980.04
2023-04-23T11:51:53.255Z,980.08
2023-04-23T11:52:53.210Z,980.09
2023-04-23T11:53:53.254Z,980.07
2023-04-23T11:54:53.210Z,980.05
2023-04-23T11:55:53.192Z,980.00
2023-04-23T11:56:53.209Z,979.99
2023-04-23T11:57:53.169Z,980.03
2023-04-23T11:58:53.157Z,979.98
2023-04-23T11:59:53.147Z,979.96
2023-04-23T12:00:53.169Z,979.92
2023-04-23T12:01:53.120Z,979.92
2023-04-23T12:02:53.429Z,979.91
2023-04-23T12:03:53.163Z,979.91
2023-04-23T12:04:53.109Z,979.87
2023-04-23T12:05:53.136Z,979.96
2023-04-23T12:06:53.081Z,979.94
2023-04-23T12:07:53.087Z,979.88
2023-04-23T12:08:53.060Z,979.90
2023-04-23T12:09:53.049Z,979.90
2023-04-23T12:10:53.045Z,979.93
2023-04-23T12:11:53.065Z,979.96
2023-04-23T12:12:53.024Z,979.90
2023-04-23T12:13:53.000Z,979.92
2023-04-23T12:14:52.988Z,979.89
2023-04-23T12:15:53.058Z,979.87
2023-04-23T12:16:52.994Z,979.88
2023-04-23T12:17:53.098Z,979.97
2023-04-23T12:18:52.946Z,979.92
2023-04-23T12:19:52.938Z,979.91
2023-04-23T12:20:52.951Z,979.92
2023-04-23T12:21:52.937Z,979.91
2023-04-23T12:22:52.910Z,979.88
2023-04-23T12:23:52.893Z,979.84
2023-04-23T12:24:52.907Z,979.86
2023-04-23T12:25:52.900Z,979.88
2023-04-23T12:26:52.925Z,979.85
2023-04-23T12:27:52.880Z,979.86
2023-04-23T12:28:52.885Z,979.88